Weather History for K4A9 - March, 2013

Change the Weather History Date:

Thursday, March 21, 2013

  Actual Average (KRMG) Record (KRMG)
Temperature  
Mean Temperature 36 °F 54 °F  
Max Temperature 44 °F 66 °F - ()
Min Temperature 28 °F 41 °F - ()
Degree Days  
Heating Degree Days 29 12  
Month to date heating degree days 303  
Since 1 July heating degree days 2925  
Cooling Degree Days 0 0  
Month to date cooling degree days 0  
Year to date cooling degree days 0  
Moisture  
Dew Point 14 °F    
Average Humidity 44    
Maximum Humidity 75    
Minimum Humidity 20    
Precipitation  
Precipitation 0.00 in 0.15 in - ()
Month to date precipitation 3.51  
Year to date precipitation 13.20  
Sea Level Pressure  
Sea Level Pressure 29.99 in    
Wind  
Wind Speed 6 mph (NNW)    
Max Wind Speed 14 mph    
Max Gust Speed 21 mph    
Visibility 10 miles    
Events      
T = Trace of Precipitation, MM = Missing Value Source: NWS Daily Summary

Daily Weather History Graph

Daily Weather History Graph

Search for Another Location

Airport or City:

Trip Planner

Search our weather history database for the weather conditions in past years. The results will help you decide how hot, cold, wet, or windy it might be!

Date:

Astronomy

Mar. 21, 2013 Rise Set
Actual Time 6:44 AM CDT 6:55 PM CDT
Civil Twilight 6:19 AM CDT 7:20 PM CDT
Nautical Twilight 5:50 AM CDT 7:50 PM CDT
Astronomical Twilight 5:20 AM CDT 8:19 PM CDT
Moon 1:36 PM CDT (3/21) 2:53 AM CDT (3/21)
Length of Visible Light 13h 00m
Length of Day
12h 10m
Waxing Gibbous, 69% of the Moon is Illuminated
Mar 21
Waxing Gibbous
Mar 27
Full
Apr 2
Last Quarter
Apr 10
New
Apr 18
First Quarter

Hourly Weather History & Observations

Time (CDT) Temp. Windchill Dew Point Humidity Pressure Visibility Wind Dir Wind Speed Gust Speed Precip Events Conditions
12:15 AM 37.4 °F 32.1 °F 26.6 °F 65% 29.98 in 10.0 mi North 6.9 mph - N/A   Scattered Clouds
12:35 AM 37.4 °F 32.8 °F 26.6 °F 65% 29.97 in 10.0 mi North 5.8 mph - N/A   Clear
1:15 AM 35.6 °F 32.8 °F 26.6 °F 70% 29.97 in 10.0 mi North 3.5 mph - N/A   Clear
1:35 AM 35.6 °F 30.7 °F 26.6 °F 70% 29.97 in 10.0 mi North 5.8 mph - N/A   Clear
1:55 AM 33.8 °F 30.8 °F 26.6 °F 75% 29.97 in 10.0 mi NNE 3.5 mph - N/A   Clear
2:15 AM 33.8 °F 29.6 °F 26.6 °F 75% 29.98 in 10.0 mi North 4.6 mph - N/A   Clear
2:35 AM 33.8 °F - 24.8 °F 70% 29.98 in 10.0 mi Calm Calm - N/A   Clear
2:55 AM 33.8 °F 30.8 °F 24.8 °F 70% 29.97 in 10.0 mi North 3.5 mph - N/A   Clear
3:15 AM 32.0 °F 27.5 °F 24.8 °F 75% 29.97 in 10.0 mi NNW 4.6 mph - N/A   Clear
3:35 AM 32.0 °F 24.8 °F 23.0 °F 69% 29.97 in 10.0 mi North 8.1 mph - N/A   Clear
3:55 AM 32.0 °F 25.6 °F 21.2 °F 64% 29.98 in 10.0 mi NNW 6.9 mph - N/A   Clear
4:15 AM 32.0 °F 25.6 °F 19.4 °F 60% 29.98 in 10.0 mi North 6.9 mph - N/A   Clear
4:35 AM 32.0 °F 24.8 °F 17.6 °F 55% 29.98 in 10.0 mi North 8.1 mph - N/A   Clear
4:55 AM 30.2 °F 25.4 °F 15.8 °F 55% 30.00 in 10.0 mi North 4.6 mph - N/A   Clear
5:15 AM 30.2 °F 22.6 °F 15.8 °F 55% 30.00 in 10.0 mi North 8.1 mph - N/A   Clear
5:35 AM 30.2 °F 25.4 °F 15.8 °F 55% 29.99 in 10.0 mi NNE 4.6 mph - N/A   Clear
5:55 AM 30.2 °F 24.3 °F 14.0 °F 51% 29.98 in 10.0 mi North 5.8 mph - N/A   Clear
6:15 AM 28.4 °F 24.6 °F 12.2 °F 51% 30.00 in 10.0 mi North 3.5 mph - N/A   Clear
6:35 AM 28.4 °F 22.2 °F 12.2 °F 51% 30.00 in 10.0 mi NW 5.8 mph - N/A   Clear
6:55 AM 28.4 °F 23.3 °F 12.2 °F 51% 30.01 in 10.0 mi NNW 4.6 mph - N/A   Clear
7:15 AM 28.4 °F - 12.2 °F 51% 30.02 in 10.0 mi Calm Calm - N/A   Clear
7:35 AM 28.4 °F 24.6 °F 12.2 °F 51% 30.02 in 10.0 mi NNW 3.5 mph - N/A   Clear
7:55 AM 30.2 °F 21.9 °F 10.4 °F 44% 30.03 in 10.0 mi NNW 9.2 mph - N/A   Clear
8:15 AM 30.2 °F 21.3 °F 10.4 °F 44% 30.04 in 10.0 mi NNW 10.4 mph - N/A   Clear
8:35 AM 30.2 °F 20.8 °F 10.4 °F 44% 30.04 in 10.0 mi NW 11.5 mph - N/A   Clear
8:55 AM 32.0 °F 24.2 °F 10.4 °F 41% 30.05 in 10.0 mi North 9.2 mph - N/A   Clear
9:15 AM 32.0 °F 24.2 °F 8.6 °F 38% 30.05 in 10.0 mi North 9.2 mph - N/A   Clear
9:35 AM 32.0 °F 24.2 °F 8.6 °F 38% 30.06 in 10.0 mi NW 9.2 mph - N/A   Clear
9:55 AM 32.0 °F 22.5 °F 3.2 °F 30% 30.06 in 10.0 mi NNW 12.7 mph - N/A   Clear
10:15 AM 32.0 °F 24.2 °F 6.8 °F 35% 30.05 in 10.0 mi NNW 9.2 mph 18.4 mph N/A   Clear
10:35 AM 33.8 °F 27.0 °F 5.0 °F 30% 30.05 in 10.0 mi WNW 8.1 mph - N/A   Clear
10:55 AM 33.8 °F 27.0 °F 6.8 °F 32% 30.05 in 10.0 mi West 8.1 mph 16.1 mph N/A   Clear
11:15 AM 33.8 °F 27.7 °F 5.0 °F 30% 30.04 in 10.0 mi WNW 6.9 mph 16.1 mph N/A   Clear
11:35 AM 35.6 °F 26.6 °F 5.0 °F 28% 30.03 in 10.0 mi North 13.8 mph 17.3 mph N/A   Clear
11:55 AM 37.4 °F 31.4 °F 6.8 °F 28% 30.03 in 10.0 mi NW 8.1 mph 17.3 mph N/A   Clear
12:15 PM 37.4 °F 33.8 °F 5.0 °F 26% 30.03 in 10.0 mi North 4.6 mph - N/A   Clear
12:35 PM 39.2 °F 32.5 °F 5.0 °F 24% 30.01 in 10.0 mi North 10.4 mph 16.1 mph N/A   Clear
12:55 PM 39.2 °F - 5.0 °F 24% 30.01 in 10.0 mi Calm Calm - N/A   Clear
1:15 PM 41.0 °F 38.0 °F 5.0 °F 23% 30.00 in 10.0 mi North 4.6 mph - N/A   Clear
1:35 PM 42.8 °F 36.6 °F 5.0 °F 21% 29.99 in 10.0 mi West 11.5 mph 19.6 mph N/A   Clear
1:55 PM 42.8 °F 37.0 °F 5.0 °F 21% 29.99 in 10.0 mi NW 10.4 mph 17.3 mph N/A   Clear
2:15 PM 42.8 °F 36.6 °F 5.0 °F 21% 29.98 in 10.0 mi NW 11.5 mph - N/A   Clear
2:35 PM 42.8 °F 38.0 °F 5.0 °F 21% 29.97 in 10.0 mi West 8.1 mph - N/A   Clear
2:55 PM 44.6 °F 40.7 °F 6.8 °F 21% 29.96 in 10.0 mi North 6.9 mph - N/A   Clear
3:15 PM 44.6 °F 38.8 °F 5.0 °F 20% 29.95 in 10.0 mi WNW 11.5 mph 17.3 mph N/A   Clear
3:35 PM 44.6 °F 39.2 °F 5.0 °F 20% 29.96 in 10.0 mi West 10.4 mph 18.4 mph N/A   Clear
3:55 PM 44.6 °F 38.1 °F 5.0 °F 20% 29.95 in 10.0 mi West 13.8 mph 20.7 mph N/A   Clear
4:15 PM 44.6 °F 41.4 °F 5.0 °F 20% 29.94 in 10.0 mi West 5.8 mph - N/A   Clear
4:35 PM 44.6 °F 39.2 °F 6.8 °F 21% 29.93 in 10.0 mi North 10.4 mph - N/A   Clear
4:55 PM 44.6 °F 39.7 °F 6.8 °F 21% 29.94 in 10.0 mi North 9.2 mph - N/A   Clear
5:15 PM 44.6 °F 43.1 °F 6.8 °F 21% 29.93 in 10.0 mi WNW 3.5 mph - N/A   Clear
5:35 PM 44.6 °F 40.7 °F 8.6 °F 23% 29.93 in 10.0 mi NW 6.9 mph - N/A   Clear
5:55 PM 44.6 °F 42.2 °F 8.6 °F 23% 29.93 in 10.0 mi NNW 4.6 mph - N/A   Clear
6:15 PM 42.8 °F 39.3 °F 8.6 °F 25% 29.93 in 10.0 mi NNW 5.8 mph - N/A   Clear
6:35 PM 42.8 °F 41.1 °F 10.4 °F 27% 29.93 in 10.0 mi NNW 3.5 mph - N/A   Clear
6:55 PM 41.0 °F - 12.2 °F 31% 29.94 in 10.0 mi Calm Calm - N/A   Clear
7:15 PM 41.0 °F - 14.0 °F 33% 29.95 in 10.0 mi Calm Calm - N/A   Clear
7:35 PM 39.2 °F - 17.6 °F 42% 29.95 in 10.0 mi Calm Calm - N/A   Clear
7:55 PM 37.4 °F - 19.4 °F 48% 29.95 in 10.0 mi Calm Calm - N/A   Clear
8:15 PM 37.4 °F - 19.4 °F 48% 29.96 in 10.0 mi Calm Calm - N/A   Clear
8:35 PM 35.6 °F - 19.4 °F 52% 29.96 in 10.0 mi Calm Calm - N/A   Clear
8:55 PM 35.6 °F - 23.0 °F 60% 29.97 in 10.0 mi Calm Calm - N/A   Clear
9:15 PM 35.6 °F - 19.4 °F 52% 29.97 in 10.0 mi Calm Calm - N/A   Clear
9:35 PM 35.6 °F - 23.0 °F 60% 29.98 in 10.0 mi Calm Calm - N/A   Clear
9:55 PM 33.8 °F - 23.0 °F 65% 29.98 in 10.0 mi Calm Calm - N/A   Clear
10:15 PM 33.8 °F - 23.0 °F 65% 29.98 in 10.0 mi Calm Calm - N/A   Clear
10:35 PM 33.8 °F - 24.8 °F 70% 29.98 in 10.0 mi Calm Calm - N/A   Clear
10:55 PM 33.8 °F - 23.0 °F 65% 29.98 in 10.0 mi Calm Calm - N/A   Clear
11:15 PM 33.8 °F - 23.0 °F 65% 29.98 in 10.0 mi Calm Calm - N/A   Clear
11:35 PM 33.8 °F - 24.8 °F 70% 30.00 in 10.0 mi Calm Calm - N/A   Mostly Cloudy
11:55 PM 35.6 °F - 23.0 °F 60% 30.00 in 10.0 mi Calm Calm - N/A   Overcast